sensor_id;sensor_type;location;lat;lon;timestamp;temperature;humidity
8408;DHT22;4241;48.452;9.216;2024-02-26T00:02:01;8.30;80.00
8408;DHT22;4241;48.452;9.216;2024-02-26T00:04:29;8.30;79.60
8408;DHT22;4241;48.452;9.216;2024-02-26T00:06:56;8.30;79.40
8408;DHT22;4241;48.452;9.216;2024-02-26T00:09:23;8.10;78.70
8408;DHT22;4241;48.452;9.216;2024-02-26T00:11:50;8.30;82.00
8408;DHT22;4241;48.452;9.216;2024-02-26T00:14:17;8.30;82.80
8408;DHT22;4241;48.452;9.216;2024-02-26T00:16:44;8.20;83.40
8408;DHT22;4241;48.452;9.216;2024-02-26T00:19:11;8.20;84.60
8408;DHT22;4241;48.452;9.216;2024-02-26T00:21:41;8.10;84.50
8408;DHT22;4241;48.452;9.216;2024-02-26T00:24:08;8.10;84.80
8408;DHT22;4241;48.452;9.216;2024-02-26T00:26:35;8.00;86.00
8408;DHT22;4241;48.452;9.216;2024-02-26T00:29:02;8.00;87.80
8408;DHT22;4241;48.452;9.216;2024-02-26T00:31:28;7.90;89.10
8408;DHT22;4241;48.452;9.216;2024-02-26T00:33:55;7.90;88.70
8408;DHT22;4241;48.452;9.216;2024-02-26T00:36:22;7.80;87.70
8408;DHT22;4241;48.452;9.216;2024-02-26T00:38:50;7.80;89.00
8408;DHT22;4241;48.452;9.216;2024-02-26T00:41:17;7.80;88.90
8408;DHT22;4241;48.452;9.216;2024-02-26T00:43:44;7.80;90.10
8408;DHT22;4241;48.452;9.216;2024-02-26T00:46:11;7.80;89.70
8408;DHT22;4241;48.452;9.216;2024-02-26T00:48:38;7.80;87.20
8408;DHT22;4241;48.452;9.216;2024-02-26T00:51:05;7.80;85.20
8408;DHT22;4241;48.452;9.216;2024-02-26T00:53:33;7.80;85.60
8408;DHT22;4241;48.452;9.216;2024-02-26T00:56:01;7.80;84.90
8408;DHT22;4241;48.452;9.216;2024-02-26T00:58:28;7.80;84.20
8408;DHT22;4241;48.452;9.216;2024-02-26T01:00:55;7.90;82.70
8408;DHT22;4241;48.452;9.216;2024-02-26T01:03:21;7.90;81.70
8408;DHT22;4241;48.452;9.216;2024-02-26T01:05:48;7.90;81.40
8408;DHT22;4241;48.452;9.216;2024-02-26T01:08:15;8.00;80.50
8408;DHT22;4241;48.452;9.216;2024-02-26T01:10:42;8.00;80.60
8408;DHT22;4241;48.452;9.216;2024-02-26T01:13:10;8.00;78.40
8408;DHT22;4241;48.452;9.216;2024-02-26T01:15:37;8.10;76.80
8408;DHT22;4241;48.452;9.216;2024-02-26T01:18:04;8.00;75.40
8408;DHT22;4241;48.452;9.216;2024-02-26T01:20:31;8.20;76.10
8408;DHT22;4241;48.452;9.216;2024-02-26T01:22:57;8.20;78.40
8408;DHT22;4241;48.452;9.216;2024-02-26T01:25:24;8.20;76.90
8408;DHT22;4241;48.452;9.216;2024-02-26T01:27:51;8.30;78.00
8408;DHT22;4241;48.452;9.216;2024-02-26T01:30:19;8.30;78.90
8408;DHT22;4241;48.452;9.216;2024-02-26T01:32:46;8.30;78.10
8408;DHT22;4241;48.452;9.216;2024-02-26T01:35:13;8.30;78.60
8408;DHT22;4241;48.452;9.216;2024-02-26T01:37:40;8.20;76.90
8408;DHT22;4241;48.452;9.216;2024-02-26T01:40:08;8.20;80.60
8408;DHT22;4241;48.452;9.216;2024-02-26T01:42:38;8.30;79.70
8408;DHT22;4241;48.452;9.216;2024-02-26T01:45:05;8.20;79.30
8408;DHT22;4241;48.452;9.216;2024-02-26T01:47:35;8.30;79.10
8408;DHT22;4241;48.452;9.216;2024-02-26T01:50:02;8.30;79.40
8408;DHT22;4241;48.452;9.216;2024-02-26T01:52:29;8.20;81.80
8408;DHT22;4241;48.452;9.216;2024-02-26T01:54:56;8.20;84.80
8408;DHT22;4241;48.452;9.216;2024-02-26T01:57:23;8.10;86.00
8408;DHT22;4241;48.452;9.216;2024-02-26T01:59:49;8.10;87.00
8408;DHT22;4241;48.452;9.216;2024-02-26T02:02:16;8.10;85.90
8408;DHT22;4241;48.452;9.216;2024-02-26T02:04:44;8.20;88.80
8408;DHT22;4241;48.452;9.216;2024-02-26T02:07:12;8.10;87.90
8408;DHT22;4241;48.452;9.216;2024-02-26T02:09:39;8.10;86.20
8408;DHT22;4241;48.452;9.216;2024-02-26T02:12:06;8.10;87.50
8408;DHT22;4241;48.452;9.216;2024-02-26T02:14:33;8.10;86.10
8408;DHT22;4241;48.452;9.216;2024-02-26T02:17:00;8.00;85.70
8408;DHT22;4241;48.452;9.216;2024-02-26T02:19:27;8.00;86.40
8408;DHT22;4241;48.452;9.216;2024-02-26T02:21:55;8.00;86.40
8408;DHT22;4241;48.452;9.216;2024-02-26T02:24:22;8.00;86.70
8408;DHT22;4241;48.452;9.216;2024-02-26T02:26:48;8.00;89.70
8408;DHT22;4241;48.452;9.216;2024-02-26T02:29:15;8.00;91.90
8408;DHT22;4241;48.452;9.216;2024-02-26T02:31:42;8.00;92.30
8408;DHT22;4241;48.452;9.216;2024-02-26T02:34:09;8.00;92.30
8408;DHT22;4241;48.452;9.216;2024-02-26T02:36:48;8.00;93.10
8408;DHT22;4241;48.452;9.216;2024-02-26T02:39:17;7.90;91.90
8408;DHT22;4241;48.452;9.216;2024-02-26T02:41:44;7.90;93.40
8408;DHT22;4241;48.452;9.216;2024-02-26T02:44:10;7.90;91.90
8408;DHT22;4241;48.452;9.216;2024-02-26T02:46:37;7.90;92.00
8408;DHT22;4241;48.452;9.216;2024-02-26T02:49:08;7.90;91.60
8408;DHT22;4241;48.452;9.216;2024-02-26T02:51:35;7.90;90.30
8408;DHT22;4241;48.452;9.216;2024-02-26T02:54:02;7.90;88.00
8408;DHT22;4241;48.452;9.216;2024-02-26T02:56:30;8.00;88.40
8408;DHT22;4241;48.452;9.216;2024-02-26T02:58:57;8.00;87.70
8408;DHT22;4241;48.452;9.216;2024-02-26T03:01:23;8.00;85.50
8408;DHT22;4241;48.452;9.216;2024-02-26T03:03:50;8.10;85.80
8408;DHT22;4241;48.452;9.216;2024-02-26T03:06:17;8.10;85.40
8408;DHT22;4241;48.452;9.216;2024-02-26T03:08:44;8.10;84.80
8408;DHT22;4241;48.452;9.216;2024-02-26T03:11:13;8.10;84.50
8408;DHT22;4241;48.452;9.216;2024-02-26T03:13:42;8.10;89.00
8408;DHT22;4241;48.452;9.216;2024-02-26T03:16:09;8.00;94.70
8408;DHT22;4241;48.452;9.216;2024-02-26T03:18:36;7.90;94.30
8408;DHT22;4241;48.452;9.216;2024-02-26T03:21:04;7.90;94.50
8408;DHT22;4241;48.452;9.216;2024-02-26T03:23:31;7.90;95.00
8408;DHT22;4241;48.452;9.216;2024-02-26T03:26:02;7.80;94.90
8408;DHT22;4241;48.452;9.216;2024-02-26T03:28:29;7.80;95.40
8408;DHT22;4241;48.452;9.216;2024-02-26T03:30:57;7.80;95.80
8408;DHT22;4241;48.452;9.216;2024-02-26T03:33:24;7.80;96.80
8408;DHT22;4241;48.452;9.216;2024-02-26T03:35:51;7.80;97.00
8408;DHT22;4241;48.452;9.216;2024-02-26T03:38:18;7.90;97.30
8408;DHT22;4241;48.452;9.216;2024-02-26T03:40:45;7.80;97.10
8408;DHT22;4241;48.452;9.216;2024-02-26T03:43:11;7.60;97.40
8408;DHT22;4241;48.452;9.216;2024-02-26T03:45:38;7.60;98.40
8408;DHT22;4241;48.452;9.216;2024-02-26T03:48:07;7.60;99.00
8408;DHT22;4241;48.452;9.216;2024-02-26T03:50:34;7.70;98.70
8408;DHT22;4241;48.452;9.216;2024-02-26T03:53:01;7.70;99.40
8408;DHT22;4241;48.452;9.216;2024-02-26T03:55:27;7.70;97.90
8408;DHT22;4241;48.452;9.216;2024-02-26T03:57:54;7.60;96.60
8408;DHT22;4241;48.452;9.216;2024-02-26T04:00:21;7.60;94.50
8408;DHT22;4241;48.452;9.216;2024-02-26T04:02:48;7.60;94.30
8408;DHT22;4241;48.452;9.216;2024-02-26T04:05:16;7.60;94.50
8408;DHT22;4241;48.452;9.216;2024-02-26T04:07:43;7.40;98.40
8408;DHT22;4241;48.452;9.216;2024-02-26T04:10:10;7.40;99.30
8408;DHT22;4241;48.452;9.216;2024-02-26T04:12:38;7.50;99.90
8408;DHT22;4241;48.452;9.216;2024-02-26T04:15:06;7.50;99.90
8408;DHT22;4241;48.452;9.216;2024-02-26T04:17:33;7.60;99.90
8408;DHT22;4241;48.452;9.216;2024-02-26T04:20:00;7.60;99.90
8408;DHT22;4241;48.452;9.216;2024-02-26T04:22:29;7.60;99.90
8408;DHT22;4241;48.452;9.216;2024-02-26T04:24:56;7.70;99.90
8408;DHT22;4241;48.452;9.216;2024-02-26T04:27:23;7.60;99.90
8408;DHT22;4241;48.452;9.216;2024-02-26T04:29:50;7.60;99.90
8408;DHT22;4241;48.452;9.216;2024-02-26T04:32:17;7.50;99.90
8408;DHT22;4241;48.452;9.216;2024-02-26T04:34:44;7.50;99.90
8408;DHT22;4241;48.452;9.216;2024-02-26T04:37:10;7.50;99.90
8408;DHT22;4241;48.452;9.216;2024-02-26T04:39:39;7.60;99.90
8408;DHT22;4241;48.452;9.216;2024-02-26T04:42:06;7.50;99.90
8408;DHT22;4241;48.452;9.216;2024-02-26T04:44:32;7.50;99.90
8408;DHT22;4241;48.452;9.216;2024-02-26T04:46:59;7.40;99.90
8408;DHT22;4241;48.452;9.216;2024-02-26T04:49:27;7.40;99.90
8408;DHT22;4241;48.452;9.216;2024-02-26T04:51:54;7.40;99.90
8408;DHT22;4241;48.452;9.216;2024-02-26T04:54:20;6.70;99.90
8408;DHT22;4241;48.452;9.216;2024-02-26T04:56:49;7.40;99.90
8408;DHT22;4241;48.452;9.216;2024-02-26T04:59:15;7.50;99.90
8408;DHT22;4241;48.452;9.216;2024-02-26T05:01:42;7.40;99.40
8408;DHT22;4241;48.452;9.216;2024-02-26T05:04:09;7.40;99.90
8408;DHT22;4241;48.452;9.216;2024-02-26T05:06:36;7.50;99.90
8408;DHT22;4241;48.452;9.216;2024-02-26T05:09:04;7.50;99.90
8408;DHT22;4241;48.452;9.216;2024-02-26T05:11:31;7.50;99.90
8408;DHT22;4241;48.452;9.216;2024-02-26T05:13:59;7.50;99.90
8408;DHT22;4241;48.452;9.216;2024-02-26T05:16:26;7.50;99.90
8408;DHT22;4241;48.452;9.216;2024-02-26T05:18:53;7.50;99.90
8408;DHT22;4241;48.452;9.216;2024-02-26T05:21:21;7.50;99.90
8408;DHT22;4241;48.452;9.216;2024-02-26T05:23:47;7.50;99.90
8408;DHT22;4241;48.452;9.216;2024-02-26T05:26:19;7.50;99.90
8408;DHT22;4241;48.452;9.216;2024-02-26T05:28:46;7.60;99.90
8408;DHT22;4241;48.452;9.216;2024-02-26T05:31:15;7.60;99.90
8408;DHT22;4241;48.452;9.216;2024-02-26T05:33:42;7.60;99.90
8408;DHT22;4241;48.452;9.216;2024-02-26T05:36:08;7.60;99.90
8408;DHT22;4241;48.452;9.216;2024-02-26T05:38:35;7.60;99.90
8408;DHT22;4241;48.452;9.216;2024-02-26T05:41:02;7.60;99.90
8408;DHT22;4241;48.452;9.216;2024-02-26T05:43:30;7.60;99.90
8408;DHT22;4241;48.452;9.216;2024-02-26T05:45:57;7.60;99.90
8408;DHT22;4241;48.452;9.216;2024-02-26T05:48:25;7.50;99.90
8408;DHT22;4241;48.452;9.216;2024-02-26T05:50:52;7.50;99.90
8408;DHT22;4241;48.452;9.216;2024-02-26T05:53:18;7.50;99.90
8408;DHT22;4241;48.452;9.216;2024-02-26T05:55:45;7.40;99.90
8408;DHT22;4241;48.452;9.216;2024-02-26T05:58:12;7.40;99.90
8408;DHT22;4241;48.452;9.216;2024-02-26T06:00:39;7.40;99.90
8408;DHT22;4241;48.452;9.216;2024-02-26T06:03:06;7.40;99.90
8408;DHT22;4241;48.452;9.216;2024-02-26T06:05:34;7.40;99.90
8408;DHT22;4241;48.452;9.216;2024-02-26T06:08:01;7.40;99.90
8408;DHT22;4241;48.452;9.216;2024-02-26T06:10:28;7.40;99.90
8408;DHT22;4241;48.452;9.216;2024-02-26T06:12:55;7.40;99.90
8408;DHT22;4241;48.452;9.216;2024-02-26T06:15:21;7.40;99.90
8408;DHT22;4241;48.452;9.216;2024-02-26T06:17:48;7.30;99.90
8408;DHT22;4241;48.452;9.216;2024-02-26T06:20:16;7.30;99.90
8408;DHT22;4241;48.452;9.216;2024-02-26T06:22:44;7.30;99.90
8408;DHT22;4241;48.452;9.216;2024-02-26T06:25:10;7.30;99.90
8408;DHT22;4241;48.452;9.216;2024-02-26T06:27:37;7.20;99.90
8408;DHT22;4241;48.452;9.216;2024-02-26T06:30:05;7.10;99.90
8408;DHT22;4241;48.452;9.216;2024-02-26T06:32:32;7.10;99.90
8408;DHT22;4241;48.452;9.216;2024-02-26T06:34:59;7.20;99.90
8408;DHT22;4241;48.452;9.216;2024-02-26T06:37:26;7.20;99.90
8408;DHT22;4241;48.452;9.216;2024-02-26T06:39:54;7.20;99.90
8408;DHT22;4241;48.452;9.216;2024-02-26T06:42:21;7.20;99.90
8408;DHT22;4241;48.452;9.216;2024-02-26T06:44:47;7.20;99.90
8408;DHT22;4241;48.452;9.216;2024-02-26T06:47:14;7.20;99.90
8408;DHT22;4241;48.452;9.216;2024-02-26T06:49:41;7.20;99.90
8408;DHT22;4241;48.452;9.216;2024-02-26T06:52:09;7.20;99.90
8408;DHT22;4241;48.452;9.216;2024-02-26T06:54:35;7.30;99.90
8408;DHT22;4241;48.452;9.216;2024-02-26T06:57:04;7.30;99.90
8408;DHT22;4241;48.452;9.216;2024-02-26T06:59:31;7.30;99.90
8408;DHT22;4241;48.452;9.216;2024-02-26T07:01:57;7.40;99.90
8408;DHT22;4241;48.452;9.216;2024-02-26T07:04:24;7.40;99.90
8408;DHT22;4241;48.452;9.216;2024-02-26T07:06:51;7.40;99.90
8408;DHT22;4241;48.452;9.216;2024-02-26T07:09:18;7.50;99.90
8408;DHT22;4241;48.452;9.216;2024-02-26T07:14:13;7.60;99.90
8408;DHT22;4241;48.452;9.216;2024-02-26T07:16:40;7.60;99.90
8408;DHT22;4241;48.452;9.216;2024-02-26T07:19:07;7.60;99.90
8408;DHT22;4241;48.452;9.216;2024-02-26T07:21:34;7.60;99.90
8408;DHT22;4241;48.452;9.216;2024-02-26T07:24:00;7.70;99.90
8408;DHT22;4241;48.452;9.216;2024-02-26T07:26:27;7.70;99.90
8408;DHT22;4241;48.452;9.216;2024-02-26T07:28:56;7.80;99.90
8408;DHT22;4241;48.452;9.216;2024-02-26T07:31:24;7.80;99.90
8408;DHT22;4241;48.452;9.216;2024-02-26T07:33:51;7.80;99.90
8408;DHT22;4241;48.452;9.216;2024-02-26T07:36:18;7.90;99.90
8408;DHT22;4241;48.452;9.216;2024-02-26T07:38:44;7.90;99.90
8408;DHT22;4241;48.452;9.216;2024-02-26T07:41:11;7.90;99.90
8408;DHT22;4241;48.452;9.216;2024-02-26T07:43:38;7.90;99.90
8408;DHT22;4241;48.452;9.216;2024-02-26T07:46:06;7.90;99.90
8408;DHT22;4241;48.452;9.216;2024-02-26T07:48:34;7.90;99.90
8408;DHT22;4241;48.452;9.216;2024-02-26T07:51:01;7.90;99.90
8408;DHT22;4241;48.452;9.216;2024-02-26T07:53:28;7.90;99.90
8408;DHT22;4241;48.452;9.216;2024-02-26T07:55:55;7.90;99.90
8408;DHT22;4241;48.452;9.216;2024-02-26T07:58:23;7.90;99.90
8408;DHT22;4241;48.452;9.216;2024-02-26T08:00:50;8.00;99.90
8408;DHT22;4241;48.452;9.216;2024-02-26T08:03:17;8.00;99.90
8408;DHT22;4241;48.452;9.216;2024-02-26T08:05:45;8.00;99.90
8408;DHT22;4241;48.452;9.216;2024-02-26T08:08:12;6.80;99.90
8408;DHT22;4241;48.452;9.216;2024-02-26T08:10:39;8.20;99.90
8408;DHT22;4241;48.452;9.216;2024-02-26T08:13:06;8.10;99.90
8408;DHT22;4241;48.452;9.216;2024-02-26T08:15:33;8.10;99.90
8408;DHT22;4241;48.452;9.216;2024-02-26T08:18:00;8.30;99.90
8408;DHT22;4241;48.452;9.216;2024-02-26T08:20:28;8.30;99.90
8408;DHT22;4241;48.452;9.216;2024-02-26T08:22:56;8.30;99.90
8408;DHT22;4241;48.452;9.216;2024-02-26T08:25:23;8.40;99.90
8408;DHT22;4241;48.452;9.216;2024-02-26T08:27:50;8.50;99.90
8408;DHT22;4241;48.452;9.216;2024-02-26T08:30:17;8.50;99.90
8408;DHT22;4241;48.452;9.216;2024-02-26T08:32:44;8.60;99.90
8408;DHT22;4241;48.452;9.216;2024-02-26T08:35:11;8.60;99.90
8408;DHT22;4241;48.452;9.216;2024-02-26T08:37:38;8.70;99.90
8408;DHT22;4241;48.452;9.216;2024-02-26T08:40:07;8.70;99.90
8408;DHT22;4241;48.452;9.216;2024-02-26T08:42:34;8.70;99.90
8408;DHT22;4241;48.452;9.216;2024-02-26T08:45:02;8.80;99.90
8408;DHT22;4241;48.452;9.216;2024-02-26T08:47:29;8.90;99.90
8408;DHT22;4241;48.452;9.216;2024-02-26T08:49:55;9.00;99.90
8408;DHT22;4241;48.452;9.216;2024-02-26T08:52:22;9.00;99.90
8408;DHT22;4241;48.452;9.216;2024-02-26T08:54:49;9.10;99.90
8408;DHT22;4241;48.452;9.216;2024-02-26T08:57:17;9.10;99.90
8408;DHT22;4241;48.452;9.216;2024-02-26T08:59:44;9.10;99.90
8408;DHT22;4241;48.452;9.216;2024-02-26T09:02:11;9.20;99.90
8408;DHT22;4241;48.452;9.216;2024-02-26T09:04:38;9.20;99.90
8408;DHT22;4241;48.452;9.216;2024-02-26T09:07:04;9.30;99.90
8408;DHT22;4241;48.452;9.216;2024-02-26T09:09:31;9.30;99.90
8408;DHT22;4241;48.452;9.216;2024-02-26T09:11:58;9.40;99.90
8408;DHT22;4241;48.452;9.216;2024-02-26T09:14:27;9.40;99.90
8408;DHT22;4241;48.452;9.216;2024-02-26T09:16:53;9.50;99.90
8408;DHT22;4241;48.452;9.216;2024-02-26T09:19:20;9.50;99.90
8408;DHT22;4241;48.452;9.216;2024-02-26T09:21:47;9.50;99.90
8408;DHT22;4241;48.452;9.216;2024-02-26T09:24:14;9.60;99.90
8408;DHT22;4241;48.452;9.216;2024-02-26T09:26:41;9.70;99.90
8408;DHT22;4241;48.452;9.216;2024-02-26T09:29:08;9.80;99.90
8408;DHT22;4241;48.452;9.216;2024-02-26T09:31:36;9.90;99.90
8408;DHT22;4241;48.452;9.216;2024-02-26T09:34:03;9.90;99.90
8408;DHT22;4241;48.452;9.216;2024-02-26T09:36:30;10.10;99.90
8408;DHT22;4241;48.452;9.216;2024-02-26T09:38:57;10.20;99.90
8408;DHT22;4241;48.452;9.216;2024-02-26T09:41:24;10.30;99.90
8408;DHT22;4241;48.452;9.216;2024-02-26T09:43:56;10.40;99.90
8408;DHT22;4241;48.452;9.216;2024-02-26T09:46:25;10.50;99.90
8408;DHT22;4241;48.452;9.216;2024-02-26T09:48:53;10.60;99.90
8408;DHT22;4241;48.452;9.216;2024-02-26T09:51:23;10.60;99.90
8408;DHT22;4241;48.452;9.216;2024-02-26T09:53:52;10.70;99.90
8408;DHT22;4241;48.452;9.216;2024-02-26T09:56:19;10.70;99.90
8408;DHT22;4241;48.452;9.216;2024-02-26T09:58:46;10.80;99.90
8408;DHT22;4241;48.452;9.216;2024-02-26T10:01:18;10.90;99.90
8408;DHT22;4241;48.452;9.216;2024-02-26T10:03:50;10.90;99.90
8408;DHT22;4241;48.452;9.216;2024-02-26T10:06:19;11.00;99.90
8408;DHT22;4241;48.452;9.216;2024-02-26T10:08:47;11.20;99.90
8408;DHT22;4241;48.452;9.216;2024-02-26T10:11:15;11.20;99.90
8408;DHT22;4241;48.452;9.216;2024-02-26T10:13:42;11.30;99.90
8408;DHT22;4241;48.452;9.216;2024-02-26T10:16:09;11.30;99.90
8408;DHT22;4241;48.452;9.216;2024-02-26T10:18:46;11.50;99.90
8408;DHT22;4241;48.452;9.216;2024-02-26T10:21:13;11.60;99.90
8408;DHT22;4241;48.452;9.216;2024-02-26T10:23:43;11.70;99.90
8408;DHT22;4241;48.452;9.216;2024-02-26T10:26:10;11.80;99.90
8408;DHT22;4241;48.452;9.216;2024-02-26T10:28:37;12.00;99.90
8408;DHT22;4241;48.452;9.216;2024-02-26T10:31:06;12.10;99.90
8408;DHT22;4241;48.452;9.216;2024-02-26T10:33:33;12.30;98.10
8408;DHT22;4241;48.452;9.216;2024-02-26T10:36:01;12.40;99.00
8408;DHT22;4241;48.452;9.216;2024-02-26T10:38:29;12.50;97.10
8408;DHT22;4241;48.452;9.216;2024-02-26T10:40:57;12.50;95.30
8408;DHT22;4241;48.452;9.216;2024-02-26T10:43:25;12.60;96.60
8408;DHT22;4241;48.452;9.216;2024-02-26T10:45:54;12.60;95.40
8408;DHT22;4241;48.452;9.216;2024-02-26T10:48:21;12.70;95.10
8408;DHT22;4241;48.452;9.216;2024-02-26T10:50:48;12.70;95.80
8408;DHT22;4241;48.452;9.216;2024-02-26T10:53:18;12.80;95.30
8408;DHT22;4241;48.452;9.216;2024-02-26T10:55:48;12.80;95.20
8408;DHT22;4241;48.452;9.216;2024-02-26T10:58:17;12.80;95.70
8408;DHT22;4241;48.452;9.216;2024-02-26T11:00:45;12.80;94.10
8408;DHT22;4241;48.452;9.216;2024-02-26T11:03:15;12.80;93.90
8408;DHT22;4241;48.452;9.216;2024-02-26T11:05:43;12.80;96.10
8408;DHT22;4241;48.452;9.216;2024-02-26T11:08:11;12.70;99.30
8408;DHT22;4241;48.452;9.216;2024-02-26T11:10:38;12.50;99.90
8408;DHT22;4241;48.452;9.216;2024-02-26T11:13:09;12.40;99.90
8408;DHT22;4241;48.452;9.216;2024-02-26T11:15:37;12.30;99.90
8408;DHT22;4241;48.452;9.216;2024-02-26T11:18:07;12.20;99.90
8408;DHT22;4241;48.452;9.216;2024-02-26T11:20:38;12.30;99.90
8408;DHT22;4241;48.452;9.216;2024-02-26T11:23:07;12.30;99.90
8408;DHT22;4241;48.452;9.216;2024-02-26T11:25:35;12.40;99.90
8408;DHT22;4241;48.452;9.216;2024-02-26T11:28:08;12.40;99.90
8408;DHT22;4241;48.452;9.216;2024-02-26T11:30:40;12.50;99.90
8408;DHT22;4241;48.452;9.216;2024-02-26T11:33:09;12.40;99.90
8408;DHT22;4241;48.452;9.216;2024-02-26T11:35:38;12.40;99.90
8408;DHT22;4241;48.452;9.216;2024-02-26T11:38:05;12.30;99.90
8408;DHT22;4241;48.452;9.216;2024-02-26T11:40:33;12.10;99.90
8408;DHT22;4241;48.452;9.216;2024-02-26T11:43:05;12.10;99.90
8408;DHT22;4241;48.452;9.216;2024-02-26T11:45:52;12.00;99.90
8408;DHT22;4241;48.452;9.216;2024-02-26T11:48:21;11.90;99.90
8408;DHT22;4241;48.452;9.216;2024-02-26T11:50:50;11.80;99.90
8408;DHT22;4241;48.452;9.216;2024-02-26T11:53:24;11.80;99.90
8408;DHT22;4241;48.452;9.216;2024-02-26T11:56:13;11.90;99.90
8408;DHT22;4241;48.452;9.216;2024-02-26T11:58:47;12.00;99.90
8408;DHT22;4241;48.452;9.216;2024-02-26T12:01:42;12.20;99.90
8408;DHT22;4241;48.452;9.216;2024-02-26T12:04:12;12.30;99.90
8408;DHT22;4241;48.452;9.216;2024-02-26T12:06:45;12.50;99.90
8408;DHT22;4241;48.452;9.216;2024-02-26T12:09:13;12.50;99.90
8408;DHT22;4241;48.452;9.216;2024-02-26T12:11:40;12.50;99.90
8408;DHT22;4241;48.452;9.216;2024-02-26T12:14:09;12.60;99.90
8408;DHT22;4241;48.452;9.216;2024-02-26T12:16:37;12.60;99.90
8408;DHT22;4241;48.452;9.216;2024-02-26T12:19:07;12.70;99.90
8408;DHT22;4241;48.452;9.216;2024-02-26T12:21:35;12.70;99.90
8408;DHT22;4241;48.452;9.216;2024-02-26T12:24:13;12.80;99.90
8408;DHT22;4241;48.452;9.216;2024-02-26T12:26:41;12.90;99.90
8408;DHT22;4241;48.452;9.216;2024-02-26T12:29:08;12.70;99.90
8408;DHT22;4241;48.452;9.216;2024-02-26T12:31:37;12.70;99.90
8408;DHT22;4241;48.452;9.216;2024-02-26T12:34:06;12.70;99.90
8408;DHT22;4241;48.452;9.216;2024-02-26T12:36:33;12.80;99.90
8408;DHT22;4241;48.452;9.216;2024-02-26T12:39:01;13.00;99.90
8408;DHT22;4241;48.452;9.216;2024-02-26T12:41:31;13.00;99.90
8408;DHT22;4241;48.452;9.216;2024-02-26T12:43:58;13.10;99.90
8408;DHT22;4241;48.452;9.216;2024-02-26T12:46:25;13.10;99.90
8408;DHT22;4241;48.452;9.216;2024-02-26T12:48:54;13.00;99.90
8408;DHT22;4241;48.452;9.216;2024-02-26T12:51:25;13.10;99.90
8408;DHT22;4241;48.452;9.216;2024-02-26T12:53:52;13.10;99.90
8408;DHT22;4241;48.452;9.216;2024-02-26T12:56:20;13.20;99.90
8408;DHT22;4241;48.452;9.216;2024-02-26T12:58:48;13.30;99.90
8408;DHT22;4241;48.452;9.216;2024-02-26T13:01:16;13.30;99.90
8408;DHT22;4241;48.452;9.216;2024-02-26T13:03:44;13.30;99.90
8408;DHT22;4241;48.452;9.216;2024-02-26T13:06:12;13.30;99.90
8408;DHT22;4241;48.452;9.216;2024-02-26T13:08:41;13.30;99.40
8408;DHT22;4241;48.452;9.216;2024-02-26T13:11:08;13.20;99.20
8408;DHT22;4241;48.452;9.216;2024-02-26T13:13:35;13.20;99.90
8408;DHT22;4241;48.452;9.216;2024-02-26T13:16:03;13.30;99.90
8408;DHT22;4241;48.452;9.216;2024-02-26T13:18:32;13.30;99.90
8408;DHT22;4241;48.452;9.216;2024-02-26T13:21:12;13.30;99.90
8408;DHT22;4241;48.452;9.216;2024-02-26T13:23:42;13.20;99.90
8408;DHT22;4241;48.452;9.216;2024-02-26T13:26:12;13.30;99.90
8408;DHT22;4241;48.452;9.216;2024-02-26T13:28:40;13.30;99.90
8408;DHT22;4241;48.452;9.216;2024-02-26T13:31:08;13.20;99.90
8408;DHT22;4241;48.452;9.216;2024-02-26T13:33:35;13.10;99.90
8408;DHT22;4241;48.452;9.216;2024-02-26T13:36:03;13.10;99.90
8408;DHT22;4241;48.452;9.216;2024-02-26T13:38:30;13.20;99.90
8408;DHT22;4241;48.452;9.216;2024-02-26T13:40:59;13.30;99.90
8408;DHT22;4241;48.452;9.216;2024-02-26T13:43:26;13.20;98.50
8408;DHT22;4241;48.452;9.216;2024-02-26T13:45:53;13.20;99.20
8408;DHT22;4241;48.452;9.216;2024-02-26T13:48:20;13.30;99.90
8408;DHT22;4241;48.452;9.216;2024-02-26T13:50:48;13.40;99.00
8408;DHT22;4241;48.452;9.216;2024-02-26T13:53:15;13.50;99.50
8408;DHT22;4241;48.452;9.216;2024-02-26T13:55:42;13.50;98.00
8408;DHT22;4241;48.452;9.216;2024-02-26T13:58:11;13.40;98.50
8408;DHT22;4241;48.452;9.216;2024-02-26T14:00:39;13.50;98.30
8408;DHT22;4241;48.452;9.216;2024-02-26T14:03:07;13.60;98.20
8408;DHT22;4241;48.452;9.216;2024-02-26T14:05:34;13.70;99.00
8408;DHT22;4241;48.452;9.216;2024-02-26T14:08:01;13.70;98.50
8408;DHT22;4241;48.452;9.216;2024-02-26T14:10:28;13.70;97.30
8408;DHT22;4241;48.452;9.216;2024-02-26T14:12:55;13.60;95.40
8408;DHT22;4241;48.452;9.216;2024-02-26T14:15:24;13.60;91.70
8408;DHT22;4241;48.452;9.216;2024-02-26T14:17:51;13.60;89.30
8408;DHT22;4241;48.452;9.216;2024-02-26T14:20:21;13.70;90.00
8408;DHT22;4241;48.452;9.216;2024-02-26T14:22:49;13.80;85.70
8408;DHT22;4241;48.452;9.216;2024-02-26T14:25:16;13.80;78.60
8408;DHT22;4241;48.452;9.216;2024-02-26T14:27:42;13.90;81.90
8408;DHT22;4241;48.452;9.216;2024-02-26T14:30:10;13.90;82.50
8408;DHT22;4241;48.452;9.216;2024-02-26T14:32:38;14.00;80.20
8408;DHT22;4241;48.452;9.216;2024-02-26T14:35:06;14.00;79.60
8408;DHT22;4241;48.452;9.216;2024-02-26T14:37:34;14.00;80.80
8408;DHT22;4241;48.452;9.216;2024-02-26T14:40:01;14.00;80.80
8408;DHT22;4241;48.452;9.216;2024-02-26T14:42:28;14.00;80.30
8408;DHT22;4241;48.452;9.216;2024-02-26T14:44:55;13.90;80.80
8408;DHT22;4241;48.452;9.216;2024-02-26T14:47:22;14.00;78.90
8408;DHT22;4241;48.452;9.216;2024-02-26T14:49:50;14.00;79.60
8408;DHT22;4241;48.452;9.216;2024-02-26T14:52:17;13.90;77.10
8408;DHT22;4241;48.452;9.216;2024-02-26T14:54:44;13.80;74.70
8408;DHT22;4241;48.452;9.216;2024-02-26T14:57:11;13.80;74.10
8408;DHT22;4241;48.452;9.216;2024-02-26T14:59:38;13.80;75.80
8408;DHT22;4241;48.452;9.216;2024-02-26T15:02:05;13.70;74.70
8408;DHT22;4241;48.452;9.216;2024-02-26T15:04:33;12.90;74.90
8408;DHT22;4241;48.452;9.216;2024-02-26T15:07:02;13.80;78.20
8408;DHT22;4241;48.452;9.216;2024-02-26T15:09:29;13.80;78.90
8408;DHT22;4241;48.452;9.216;2024-02-26T15:11:56;13.80;79.30
8408;DHT22;4241;48.452;9.216;2024-02-26T15:14:24;13.80;77.50
8408;DHT22;4241;48.452;9.216;2024-02-26T15:16:51;13.70;77.20
8408;DHT22;4241;48.452;9.216;2024-02-26T15:19:18;13.70;79.40
8408;DHT22;4241;48.452;9.216;2024-02-26T15:21:46;13.70;80.00
8408;DHT22;4241;48.452;9.216;2024-02-26T15:24:14;13.60;82.00
8408;DHT22;4241;48.452;9.216;2024-02-26T15:26:42;13.60;81.60
8408;DHT22;4241;48.452;9.216;2024-02-26T15:29:08;13.50;79.40
8408;DHT22;4241;48.452;9.216;2024-02-26T15:31:35;13.40;84.80
8408;DHT22;4241;48.452;9.216;2024-02-26T15:34:03;13.40;83.30
8408;DHT22;4241;48.452;9.216;2024-02-26T15:36:30;13.20;82.40
8408;DHT22;4241;48.452;9.216;2024-02-26T15:38:57;13.20;85.20
8408;DHT22;4241;48.452;9.216;2024-02-26T15:41:25;13.10;82.40
8408;DHT22;4241;48.452;9.216;2024-02-26T15:43:52;13.00;83.00
8408;DHT22;4241;48.452;9.216;2024-02-26T15:46:18;12.90;83.40
8408;DHT22;4241;48.452;9.216;2024-02-26T15:48:45;12.90;85.50
8408;DHT22;4241;48.452;9.216;2024-02-26T15:51:18;12.90;85.10
8408;DHT22;4241;48.452;9.216;2024-02-26T15:53:46;12.90;86.40
8408;DHT22;4241;48.452;9.216;2024-02-26T15:56:13;12.90;86.50
8408;DHT22;4241;48.452;9.216;2024-02-26T15:58:42;12.90;87.50
8408;DHT22;4241;48.452;9.216;2024-02-26T16:01:08;12.90;86.70
8408;DHT22;4241;48.452;9.216;2024-02-26T16:03:39;12.80;87.10
8408;DHT22;4241;48.452;9.216;2024-02-26T16:06:07;12.80;89.60
8408;DHT22;4241;48.452;9.216;2024-02-26T16:08:35;12.80;90.00
8408;DHT22;4241;48.452;9.216;2024-02-26T16:11:02;12.70;90.10
8408;DHT22;4241;48.452;9.216;2024-02-26T16:13:29;12.50;86.00
8408;DHT22;4241;48.452;9.216;2024-02-26T16:16:01;12.50;87.20
8408;DHT22;4241;48.452;9.216;2024-02-26T16:18:29;12.50;88.60